createdAt,value
2024-03-11T00:00:47.776Z,101089.69
2024-03-11T00:03:36.360Z,101102.00
2024-03-11T00:06:04.091Z,101081.91
2024-03-11T00:08:33.230Z,101088.06
2024-03-11T00:11:06.163Z,101050.53
2024-03-11T00:13:34.285Z,101075.88
2024-03-11T00:16:02.530Z,101097.69
2024-03-11T00:18:30.855Z,101088.94
2024-03-11T00:20:58.504Z,101080.28
2024-03-11T00:23:27.239Z,101102.16
2024-03-11T00:25:54.298Z,101098.66
2024-03-11T00:28:21.763Z,101073.31
2024-03-11T00:30:48.822Z,101089.09
2024-03-11T00:33:19.004Z,101111.88
2024-03-11T00:35:47.884Z,101100.59
2024-03-11T00:38:15.204Z,101112.78
2024-03-11T00:40:42.423Z,101107.53
2024-03-11T00:43:09.858Z,101069.94
2024-03-11T00:45:40.927Z,101105.88
2024-03-11T00:48:13.168Z,101107.72
2024-03-11T00:50:41.219Z,101087.63
2024-03-11T00:53:08.851Z,101091.16
2024-03-11T00:55:35.890Z,101074.63
2024-03-11T00:58:03.264Z,101093.03
2024-03-11T01:00:32.255Z,101086.91
2024-03-11T01:03:02.626Z,101090.41
2024-03-11T01:05:32.954Z,101108.78
2024-03-11T01:08:00.394Z,101100.03
2024-03-11T01:10:28.479Z,101087.84
2024-03-11T01:12:57.453Z,101107.09
2024-03-11T01:15:25.515Z,101083.50
2024-03-11T01:17:53.097Z,101091.38
2024-03-11T01:20:22.185Z,101098.38
2024-03-11T01:22:50.621Z,101067.78
2024-03-11T01:25:21.421Z,101089.66
2024-03-11T01:27:50.057Z,101081.78
2024-03-11T01:30:17.018Z,101088.75
2024-03-11T01:32:46.498Z,101096.59
2024-03-11T01:35:15.153Z,101095.69
2024-03-11T01:37:45.129Z,101112.34
2024-03-11T01:40:15.543Z,101098.38
2024-03-11T01:42:44.549Z,101101.91
2024-03-11T01:45:15.711Z,101098.38
2024-03-11T01:47:44.778Z,101106.28
2024-03-11T01:50:15.706Z,101127.28
2024-03-11T01:53:04.751Z,101115.03
2024-03-11T01:55:32.930Z,101129.00
2024-03-11T01:58:02.456Z,101122.88
2024-03-11T02:00:30.397Z,101117.69
2024-03-11T02:02:58.178Z,101116.78
2024-03-11T02:05:27.539Z,101133.41
2024-03-11T02:08:01.148Z,101129.88
2024-03-11T02:10:29.340Z,101142.13
2024-03-11T02:13:00.663Z,101138.66
2024-03-11T02:15:28.589Z,101131.66
2024-03-11T02:17:56.225Z,101141.31
2024-03-11T02:20:23.769Z,101160.56
2024-03-11T02:22:57.305Z,101162.34
2024-03-11T02:25:30.104Z,101164.97
2024-03-11T02:28:02.333Z,101169.34
2024-03-11T02:30:29.636Z,101151.00
2024-03-11T02:32:58.101Z,101107.28
2024-03-11T02:35:25.747Z,101110.81
2024-03-11T02:37:54.206Z,101160.66
2024-03-11T02:40:28.073Z,101172.88
2024-03-11T02:42:56.020Z,101174.59
2024-03-11T02:45:27.262Z,101133.53
2024-03-11T02:47:55.110Z,101158.00
2024-03-11T02:50:22.679Z,101165.00
2024-03-11T02:52:50.100Z,101158.88
2024-03-11T02:55:20.018Z,101161.50
2024-03-11T02:57:50.501Z,101158.03
2024-03-11T03:00:18.912Z,101161.53
2024-03-11T03:02:50.962Z,101136.16
2024-03-11T03:05:19.082Z,101181.66
2024-03-11T03:07:48.105Z,101165.03
2024-03-11T03:10:15.418Z,101176.41
2024-03-11T03:12:45.984Z,101186.03
2024-03-11T03:15:13.874Z,101151.91
2024-03-11T03:17:41.538Z,101144.03
2024-03-11T03:20:12.535Z,101159.78
2024-03-11T03:22:40.141Z,101173.78
2024-03-11T03:25:07.749Z,101202.66
2024-03-11T03:27:36.435Z,101190.41
2024-03-11T03:30:06.718Z,101193.94
2024-03-11T03:32:34.716Z,101166.78
2024-03-11T03:35:02.017Z,101140.56
2024-03-11T03:37:29.547Z,101179.06
2024-03-11T03:39:56.769Z,101172.06
2024-03-11T03:42:24.685Z,101158.91
2024-03-11T03:44:52.801Z,101158.94
2024-03-11T03:47:22.522Z,101150.19
2024-03-11T03:49:49.943Z,101186.03
2024-03-11T03:52:17.414Z,101217.56
2024-03-11T03:54:44.369Z,101207.06
2024-03-11T03:57:11.906Z,101222.81
2024-03-11T03:59:39.107Z,101179.94
2024-03-11T04:02:09.150Z,101220.16
2024-03-11T04:04:40.848Z,101225.41
2024-03-11T04:07:08.861Z,101200.06
2024-03-11T04:09:36.532Z,101234.16
2024-03-11T04:12:05.050Z,101222.75
2024-03-11T04:14:32.397Z,101229.78
2024-03-11T04:17:00.040Z,101195.66
2024-03-11T04:19:27.546Z,101242.03
2024-03-11T04:21:54.920Z,101190.41
2024-03-11T04:24:27.252Z,101250.78
2024-03-11T04:26:54.931Z,101239.41
2024-03-11T04:29:22.077Z,101246.38
2024-03-11T04:31:49.670Z,101242.91
2024-03-11T04:34:16.968Z,101240.28
2024-03-11T04:36:44.362Z,101263.03
2024-03-11T04:39:15.596Z,101250.78
2024-03-11T04:41:50.661Z,101254.28
2024-03-11T04:44:19.194Z,101266.53
2024-03-11T04:46:47.733Z,101259.53
2024-03-11T04:49:16.262Z,101268.28
2024-03-11T04:51:43.978Z,101281.41
2024-03-11T04:54:12.824Z,101281.41
2024-03-11T04:56:40.287Z,101268.28
2024-03-11T04:59:09.635Z,101297.16
2024-03-11T05:01:37.520Z,101272.66
2024-03-11T05:06:48.542Z,101298.03
2024-03-11T05:09:17.469Z,101280.56
2024-03-11T05:11:45.127Z,101268.31
2024-03-11T05:14:16.861Z,101256.06
2024-03-11T05:16:46.068Z,101330.47
2024-03-11T05:19:18.620Z,101327.84
2024-03-11T05:21:46.283Z,101300.69
2024-03-11T05:24:25.933Z,101318.22
2024-03-11T05:27:08.027Z,101287.56
2024-03-11T05:29:36.357Z,101340.13
2024-03-11T05:32:04.440Z,101341.00
2024-03-11T05:34:31.840Z,101330.50
2024-03-11T05:36:59.313Z,101354.16
2024-03-11T05:39:26.987Z,101364.69
2024-03-11T05:42:02.324Z,101359.41
2024-03-11T05:44:30.913Z,101359.41
2024-03-11T05:46:58.397Z,101308.63
2024-03-11T05:49:27.951Z,101341.91
2024-03-11T05:51:55.578Z,101379.59
2024-03-11T05:54:25.485Z,101300.72
2024-03-11T05:56:57.744Z,101363.81
2024-03-11T05:59:25.466Z,101385.72
2024-03-11T06:01:57.060Z,101376.09
2024-03-11T06:04:28.820Z,101367.28
2024-03-11T06:06:55.968Z,101382.22
2024-03-11T06:09:23.374Z,101380.44
2024-03-11T06:11:51.420Z,101390.09
2024-03-11T06:14:19.322Z,101372.59
2024-03-11T06:16:48.482Z,101397.09
2024-03-11T06:19:21.393Z,101401.50
2024-03-11T06:21:49.975Z,101403.25
2024-03-11T06:24:18.721Z,101374.31
2024-03-11T06:26:47.625Z,101371.69
2024-03-11T06:29:17.952Z,101412.88
2024-03-11T06:31:47.494Z,101385.72
2024-03-11T06:34:17.091Z,101402.38
2024-03-11T06:36:44.174Z,101422.53
2024-03-11T06:39:11.758Z,101419.00
2024-03-11T06:41:44.744Z,101406.75
2024-03-11T06:44:17.820Z,101398.00
2024-03-11T06:46:49.384Z,101424.25
2024-03-11T06:49:18.141Z,101414.63
2024-03-11T06:51:45.356Z,101438.31
2024-03-11T06:54:12.778Z,101396.25
2024-03-11T06:56:39.920Z,101407.63
2024-03-11T06:59:07.375Z,101408.50
2024-03-11T07:01:34.741Z,101391.84
2024-03-11T07:04:02.614Z,101399.72
2024-03-11T07:06:30.609Z,101412.00
2024-03-11T07:09:02.148Z,101407.59
2024-03-11T07:11:29.591Z,101409.34
2024-03-11T07:13:57.358Z,101422.50
2024-03-11T07:16:25.336Z,101373.44
2024-03-11T07:18:56.385Z,101382.19
2024-03-11T07:21:29.360Z,101394.44
2024-03-11T07:23:57.468Z,101426.84
2024-03-11T07:26:25.093Z,101421.59
2024-03-11T07:28:56.668Z,101420.69
2024-03-11T07:34:11.546Z,101377.78
2024-03-11T07:36:39.477Z,101415.44
2024-03-11T07:39:07.517Z,101399.66
2024-03-11T07:41:36.646Z,101385.63
2024-03-11T07:44:08.100Z,101409.25
2024-03-11T07:46:37.091Z,101398.75
2024-03-11T07:49:07.583Z,101413.66
2024-03-11T07:51:35.754Z,101432.03
2024-03-11T07:54:06.570Z,101402.22
2024-03-11T07:56:33.612Z,101446.91
2024-03-11T07:59:03.023Z,101411.84
2024-03-11T08:01:34.199Z,101442.44
2024-03-11T08:04:02.012Z,101395.06
2024-03-11T08:06:31.859Z,101420.38
2024-03-11T08:08:59.567Z,101426.50
2024-03-11T08:11:27.314Z,101441.34
2024-03-11T08:13:54.888Z,101398.44
2024-03-11T08:16:23.167Z,101430.78
2024-03-11T08:18:50.591Z,101393.97
2024-03-11T08:24:16.742Z,101441.19
2024-03-11T08:26:46.450Z,101450.84
2024-03-11T08:29:13.768Z,101426.34
2024-03-11T08:31:41.188Z,101431.53
2024-03-11T08:34:17.416Z,101433.25
2024-03-11T08:36:45.757Z,101430.59
2024-03-11T08:39:13.038Z,101420.91
2024-03-11T08:41:50.798Z,101447.16
2024-03-11T08:44:19.782Z,101429.69
2024-03-11T08:46:48.839Z,101411.34
2024-03-11T08:49:16.597Z,101426.19
2024-03-11T08:51:44.089Z,101463.88
2024-03-11T08:54:11.242Z,101441.97
2024-03-11T08:56:41.059Z,101467.28
2024-03-11T08:59:17.131Z,101447.06
2024-03-11T09:01:46.083Z,101406.78
2024-03-11T09:04:13.242Z,101458.44
2024-03-11T09:06:45.077Z,101439.22
2024-03-11T09:09:26.421Z,101419.91
2024-03-11T09:11:58.247Z,101428.72
2024-03-11T09:15:20.278Z,101458.31
2024-03-11T09:21:05.035Z,101469.66
2024-03-11T09:23:39.827Z,101429.41
2024-03-11T09:26:14.582Z,101484.59
2024-03-11T09:29:29.721Z,101451.13
2024-03-11T09:32:11.713Z,101476.47
2024-03-11T09:34:56.111Z,101486.97
2024-03-11T09:37:43.174Z,101449.25
2024-03-11T09:40:16.848Z,101478.09
2024-03-11T09:42:52.575Z,101427.34
2024-03-11T09:48:12.954Z,101435.91
2024-03-11T09:50:43.437Z,101442.06
2024-03-11T09:53:20.425Z,101481.31
2024-03-11T09:55:49.202Z,101479.41
2024-03-11T09:58:20.689Z,101468.94
2024-03-11T10:00:59.453Z,101484.53
2024-03-11T10:03:29.672Z,101489.75
2024-03-11T10:08:44.665Z,101448.50
2024-03-11T10:11:35.738Z,101457.25
2024-03-11T10:17:31.207Z,101463.38
2024-03-11T10:20:01.345Z,101453.69
2024-03-11T10:22:32.728Z,101446.69
2024-03-11T10:24:59.954Z,101458.94
2024-03-11T10:27:41.179Z,101464.81
2024-03-11T10:30:26.378Z,101472.56
2024-03-11T10:32:57.158Z,101437.69
2024-03-11T10:35:28.161Z,101456.13
2024-03-11T10:38:12.267Z,101418.44
2024-03-11T10:40:40.086Z,101428.91
2024-03-11T10:43:30.043Z,101458.50
2024-03-11T10:46:00.326Z,101475.28
2024-03-11T10:48:30.843Z,101443.66
2024-03-11T10:50:59.245Z,101420.13
2024-03-11T10:53:27.385Z,101414.00
2024-03-11T10:55:58.435Z,101433.94
2024-03-11T10:58:30.111Z,101424.34
2024-03-11T11:01:02.340Z,101454.13
2024-03-11T11:03:33.582Z,101459.25
2024-03-11T11:06:04.942Z,101390.94
2024-03-11T11:08:38.760Z,101443.16
2024-03-11T11:11:07.994Z,101379.41
2024-03-11T11:13:38.236Z,101444.03
2024-03-11T11:16:08.847Z,101431.94
2024-03-11T11:18:40.888Z,101417.81
2024-03-11T11:21:34.252Z,101449.28
2024-03-11T11:24:58.010Z,101444.88
2024-03-11T11:27:26.135Z,101399.53
2024-03-11T11:29:55.334Z,101400.41
2024-03-11T11:32:31.916Z,101427.56
2024-03-11T11:35:00.719Z,101409.19
2024-03-11T11:37:35.487Z,101434.38
2024-03-11T11:40:33.220Z,101444.91
2024-03-11T11:43:01.302Z,101426.53
2024-03-11T11:45:57.440Z,101406.28
2024-03-11T11:48:28.103Z,101391.41
2024-03-11T11:51:00.576Z,101431.44
2024-03-11T11:53:45.645Z,101406.06
2024-03-11T11:56:32.440Z,101389.41
2024-03-11T11:59:06.296Z,101429.50
2024-03-11T12:01:47.422Z,101370.13
2024-03-11T12:04:18.871Z,101389.94
2024-03-11T12:06:53.116Z,101388.22
2024-03-11T12:09:21.284Z,101410.13
2024-03-11T12:11:50.505Z,101410.00
2024-03-11T12:14:18.320Z,101416.91
2024-03-11T12:16:45.956Z,101392.28
2024-03-11T12:19:13.184Z,101405.31
2024-03-11T12:21:42.776Z,101384.41
2024-03-11T12:24:14.077Z,101383.44
2024-03-11T12:26:46.957Z,101400.84
2024-03-11T12:29:15.580Z,101346.69
2024-03-11T12:31:55.290Z,101334.22
2024-03-11T12:34:26.100Z,101333.09
2024-03-11T12:36:56.148Z,101394.78
2024-03-11T12:39:35.522Z,101384.00
2024-03-11T12:42:03.250Z,101337.41
2024-03-11T12:44:33.337Z,101326.03
2024-03-11T12:47:02.725Z,101379.28
2024-03-11T12:49:30.852Z,101334.53
2024-03-11T12:52:10.147Z,101390.44
2024-03-11T12:54:40.101Z,101332.72
2024-03-11T12:57:13.636Z,101379.25
2024-03-11T13:00:01.453Z,101330.34
2024-03-11T13:02:29.495Z,101308.56
2024-03-11T13:05:11.868Z,101380.38
2024-03-11T13:07:40.424Z,101370.81
2024-03-11T13:13:21.428Z,101329.03
2024-03-11T13:15:51.610Z,101363.97
2024-03-11T13:18:20.104Z,101322.13
2024-03-11T13:20:52.161Z,101350.88
2024-03-11T13:26:11.784Z,101334.63
2024-03-11T13:28:43.009Z,101350.38
2024-03-11T13:31:15.003Z,101338.19
2024-03-11T13:36:31.267Z,101353.88
2024-03-11T13:39:01.597Z,101321.72
2024-03-11T13:41:30.791Z,101322.63
2024-03-11T13:44:01.210Z,101305.31
2024-03-11T13:46:29.036Z,101288.59
2024-03-11T13:48:56.675Z,101352.47
2024-03-11T13:51:27.894Z,101348.97
2024-03-11T13:53:55.833Z,101328.94
2024-03-11T13:56:26.644Z,101328.19
2024-03-11T13:58:54.752Z,101302.81
2024-03-11T14:01:26.074Z,101336.09
2024-03-11T14:03:53.914Z,101306.34
2024-03-11T14:06:21.884Z,101330.81
2024-03-11T14:08:49.471Z,101285.47
2024-03-11T14:11:19.763Z,101292.47
2024-03-11T14:14:15.374Z,101296.06
2024-03-11T14:16:50.657Z,101335.28
2024-03-11T14:19:21.846Z,101334.44
2024-03-11T14:21:51.996Z,101323.13
2024-03-11T14:24:21.840Z,101326.00
2024-03-11T14:26:49.403Z,101320.72
2024-03-11T14:29:17.260Z,101310.31
2024-03-11T14:31:48.457Z,101336.41
2024-03-11T14:34:15.929Z,101332.22
2024-03-11T14:36:45.431Z,101334.03
2024-03-11T14:39:23.098Z,101335.00
2024-03-11T14:41:50.639Z,101324.53
2024-03-11T14:44:18.184Z,101321.88
2024-03-11T14:46:57.011Z,101311.53
2024-03-11T14:49:27.915Z,101347.38
2024-03-11T14:51:56.720Z,101346.47
2024-03-11T14:54:28.265Z,101289.72
2024-03-11T14:56:58.291Z,101298.50
2024-03-11T14:59:26.120Z,101334.38
2024-03-11T15:01:58.341Z,101302.00
2024-03-11T15:04:26.840Z,101278.53
2024-03-11T15:06:55.050Z,101358.09
2024-03-11T15:09:23.499Z,101325.91
2024-03-11T15:11:55.834Z,101352.16
2024-03-11T15:14:23.403Z,101375.00
2024-03-11T15:16:57.057Z,101368.84
2024-03-11T15:19:25.649Z,101357.56
2024-03-11T15:21:53.417Z,101354.09
2024-03-11T15:24:22.499Z,101373.28
2024-03-11T15:26:50.225Z,101326.13
2024-03-11T15:29:18.230Z,101364.53
2024-03-11T15:31:46.340Z,101324.38
2024-03-11T15:34:16.700Z,101343.59
2024-03-11T15:36:44.305Z,101333.03
2024-03-11T15:39:20.610Z,101331.28
2024-03-11T15:41:48.301Z,101366.34
2024-03-11T15:44:15.335Z,101344.44
2024-03-11T15:46:43.176Z,101332.25
2024-03-11T15:49:12.100Z,101324.44
2024-03-11T15:51:40.637Z,101354.16
2024-03-11T15:54:10.672Z,101381.34
2024-03-11T15:56:38.643Z,101385.66
2024-03-11T15:59:08.499Z,101372.56
2024-03-11T16:01:37.359Z,101371.69
2024-03-11T16:04:06.576Z,101385.69
2024-03-11T16:06:35.322Z,101390.19
2024-03-11T16:09:03.515Z,101351.72
2024-03-11T16:11:37.128Z,101386.69
2024-03-11T16:14:04.318Z,101369.22
2024-03-11T16:16:32.063Z,101346.53
2024-03-11T16:18:59.710Z,101350.09
2024-03-11T16:21:34.197Z,101372.75
2024-03-11T16:24:03.425Z,101358.00
2024-03-11T16:26:36.207Z,101352.75
2024-03-11T16:29:05.048Z,101356.34
2024-03-11T16:31:34.821Z,101387.81
2024-03-11T16:34:01.952Z,101344.13
2024-03-11T16:36:34.487Z,101371.22
2024-03-11T16:39:02.755Z,101358.22
2024-03-11T16:41:31.115Z,101377.41
2024-03-11T16:44:03.447Z,101382.75
2024-03-11T16:46:36.826Z,101370.53
2024-03-11T16:49:05.033Z,101349.50
2024-03-11T16:51:33.589Z,101359.22
2024-03-11T16:54:00.909Z,101370.59
2024-03-11T16:56:33.404Z,101360.19
2024-03-11T16:59:03.625Z,101369.81
2024-03-11T17:01:34.836Z,101356.75
2024-03-11T17:04:05.059Z,101355.91
2024-03-11T17:06:33.212Z,101335.09
2024-03-11T17:09:00.796Z,101348.31
2024-03-11T17:11:29.589Z,101309.94
2024-03-11T17:13:56.868Z,101331.94
2024-03-11T17:16:27.480Z,101298.75
2024-03-11T17:18:56.948Z,101346.03
2024-03-11T17:21:28.136Z,101323.38
2024-03-11T17:23:55.721Z,101353.97
2024-03-11T17:26:23.787Z,101360.13
2024-03-11T17:28:52.065Z,101354.06
2024-03-11T17:31:25.195Z,101329.56
2024-03-11T17:33:52.811Z,101314.72
2024-03-11T17:42:03.262Z,101331.28
2024-03-11T17:44:31.178Z,101353.16
2024-03-11T17:46:59.560Z,101371.47
2024-03-11T17:49:28.560Z,101377.56
2024-03-11T17:54:39.107Z,101336.38
2024-03-11T17:57:07.279Z,101342.59
2024-03-11T17:59:36.954Z,101362.72
2024-03-11T18:02:06.728Z,101382.88
2024-03-11T18:04:34.521Z,101387.28
2024-03-11T18:07:01.644Z,101340.06
2024-03-11T18:09:33.214Z,101367.25
2024-03-11T18:12:04.878Z,101357.56
2024-03-11T18:17:14.664Z,101331.31
2024-03-11T18:19:42.382Z,101340.13
2024-03-11T18:22:11.141Z,101347.13
2024-03-11T18:24:38.856Z,101360.19
2024-03-11T18:27:06.798Z,101336.63
2024-03-11T18:29:36.607Z,101303.41
2024-03-11T18:32:11.231Z,101319.16
2024-03-11T18:34:38.944Z,101375.25
2024-03-11T18:37:12.554Z,101371.78
2024-03-11T18:39:42.944Z,101335.91
2024-03-11T18:42:13.370Z,101334.13
2024-03-11T18:44:43.348Z,101328.03
2024-03-11T18:49:56.525Z,101359.56
2024-03-11T18:52:23.619Z,101352.53
2024-03-11T18:54:51.501Z,101301.84
2024-03-11T18:57:18.784Z,101352.63
2024-03-11T18:59:46.432Z,101330.72
2024-03-11T19:02:15.552Z,101330.69
2024-03-11T19:04:42.918Z,101321.09
2024-03-11T19:07:13.580Z,101321.97
2024-03-11T19:09:42.840Z,101340.41
2024-03-11T19:12:10.010Z,101342.19
2024-03-11T19:14:37.787Z,101322.06
2024-03-11T19:17:05.668Z,101368.41
2024-03-11T19:19:36.614Z,101341.22
2024-03-11T19:22:05.737Z,101330.72
2024-03-11T19:24:33.687Z,101312.44
2024-03-11T19:27:04.370Z,101346.56
2024-03-11T19:33:47.664Z,101309.75
2024-03-11T19:36:19.356Z,101310.66
2024-03-11T19:39:02.357Z,101348.28
2024-03-11T19:42:15.545Z,101343.91
2024-03-11T19:44:55.368Z,101341.31
2024-03-11T19:48:10.435Z,101305.44
2024-03-11T19:51:15.017Z,101327.28
2024-03-11T19:54:04.484Z,101313.25
2024-03-11T19:57:18.161Z,101281.81
2024-03-11T20:00:35.747Z,101321.19
2024-03-11T20:03:19.463Z,101319.47
2024-03-11T20:06:35.265Z,101300.22
2024-03-11T20:13:45.290Z,101299.44
2024-03-11T20:16:52.496Z,101303.75
2024-03-11T20:19:54.070Z,101303.78
2024-03-11T20:26:43.695Z,101305.56
2024-03-11T20:29:59.950Z,101260.09
2024-03-11T20:33:07.449Z,101296.78
2024-03-11T20:35:35.573Z,101300.34
2024-03-11T20:38:04.457Z,101260.06
2024-03-11T20:40:43.149Z,101247.84
2024-03-11T20:43:12.846Z,101230.34
2024-03-11T20:45:41.173Z,101271.47
2024-03-11T20:48:09.541Z,101295.97
2024-03-11T20:50:38.972Z,101257.41
2024-03-11T20:53:11.809Z,101258.34
2024-03-11T20:55:39.482Z,101276.72
2024-03-11T20:58:07.282Z,101239.97
2024-03-11T21:00:36.078Z,101265.31
2024-03-11T21:03:03.993Z,101236.47
2024-03-11T21:05:34.346Z,101240.84
2024-03-11T21:08:03.704Z,101271.44
2024-03-11T21:10:32.752Z,101264.50
2024-03-11T21:13:00.559Z,101286.34
2024-03-11T21:15:28.163Z,101244.38
2024-03-11T21:17:55.553Z,101265.31
2024-03-11T21:20:23.052Z,101239.09
2024-03-11T21:22:53.649Z,101258.28
2024-03-11T21:25:43.809Z,101277.50
2024-03-11T21:28:12.989Z,101239.91
2024-03-11T21:30:40.776Z,101276.56
2024-03-11T21:33:11.312Z,101240.72
2024-03-11T21:35:38.745Z,101219.69
2024-03-11T21:38:13.787Z,101252.03
2024-03-11T21:40:49.859Z,101224.94
2024-03-11T21:43:19.286Z,101227.50
2024-03-11T21:45:47.097Z,101230.09
2024-03-11T21:48:16.698Z,101242.31
2024-03-11T21:50:47.018Z,101228.34
2024-03-11T21:53:14.712Z,101240.53
2024-03-11T21:55:48.379Z,101253.69
2024-03-11T21:58:20.346Z,101237.91
2024-03-11T22:00:48.105Z,101225.69
2024-03-11T22:03:15.212Z,101253.66
2024-03-11T22:05:42.760Z,101217.78
2024-03-11T22:08:10.782Z,101222.16
2024-03-11T22:10:39.396Z,101214.28
2024-03-11T22:13:06.733Z,101197.63
2024-03-11T22:15:34.462Z,101228.19
2024-03-11T22:18:02.426Z,101196.72
2024-03-11T22:20:30.709Z,101222.91
2024-03-11T22:22:59.387Z,101224.63
2024-03-11T22:25:28.379Z,101217.56
2024-03-11T22:27:55.890Z,101212.31
2024-03-11T22:30:24.823Z,101212.31
2024-03-11T22:32:52.140Z,101170.34
2024-03-11T22:35:20.028Z,101183.50
2024-03-11T22:37:48.051Z,101214.88
2024-03-11T22:40:17.494Z,101198.22
2024-03-11T22:42:48.820Z,101194.78
2024-03-11T22:45:17.491Z,101171.16
2024-03-11T22:47:45.074Z,101194.72
2024-03-11T22:50:12.519Z,101192.09
2024-03-11T22:52:39.900Z,101187.69
2024-03-11T22:55:10.442Z,101158.81
2024-03-11T22:57:38.430Z,101184.25
2024-03-11T23:00:26.323Z,101199.19
2024-03-11T23:02:55.264Z,101199.19
2024-03-11T23:05:22.847Z,101184.38
2024-03-11T23:07:50.159Z,101182.59
2024-03-11T23:10:18.259Z,101155.56
2024-03-11T23:12:45.774Z,101187.84
2024-03-11T23:15:15.553Z,101196.56
2024-03-11T23:17:42.806Z,101193.94
2024-03-11T23:20:11.297Z,101173.75
2024-03-11T23:22:38.979Z,101188.66
2024-03-11T23:25:07.762Z,101192.16
2024-03-11T23:27:35.029Z,101138.84
2024-03-11T23:30:02.636Z,101163.25
2024-03-11T23:32:29.786Z,101154.53
2024-03-11T23:34:57.426Z,101175.50
2024-03-11T23:37:24.504Z,101173.69
2024-03-11T23:39:52.164Z,101157.97
2024-03-11T23:42:19.329Z,101156.19
2024-03-11T23:44:46.960Z,101168.38
2024-03-11T23:47:16.472Z,101135.13
2024-03-11T23:49:46.082Z,101140.38
2024-03-11T23:52:17.344Z,101165.75
2024-03-11T23:54:45.928Z,101126.38
2024-03-11T23:57:13.933Z,101130.69
2024-03-11T23:59:42.846Z,101128.94
